Time;durP1;ratioP1;P1;durP2;ratioP2;P2;SDS_P1;SDS_P2;PMS_P1;PMS_P2;Temp;Humidity;BMP_temperature;BMP_pressure;BME280_temperature;BME280_humidity;BME280_pressure;Samples;Min_cycle;Max_cycle;Signal;HPM_P1;HPM_P2
2022/05/11 04:22:45;;;;;;;25.80;15.88;;;;;;;11.98;100.00;100220.22;5088783;27;20373;-75
2022/05/11 04:25:15;;;;;;;19.63;12.82;;;;;;;11.91;100.00;100213.97;5089581;28;20039;-78
2022/05/11 04:27:41;;;;;;;23.02;14.73;;;;;;;12.00;100.00;100223.56;5093292;28;20032;-76
2022/05/11 04:30:07;;;;;;;22.63;13.32;;;;;;;12.00;100.00;100223.56;5089019;28;20568;-78
2022/05/11 04:32:33;;;;;;;28.90;16.73;;;;;;;12.01;100.00;100225.22;5091318;28;20107;-77
2022/05/11 04:34:59;;;;;;;19.83;13.63;;;;;;;11.98;100.00;100227.41;5089321;28;20116;-77
2022/05/11 04:37:25;;;;;;;20.63;12.65;;;;;;;12.01;100.00;100225.22;5059452;28;20047;-78
2022/05/11 04:39:50;;;;;;;24.40;15.50;;;;;;;12.03;100.00;100223.19;5093023;28;20116;-77
2022/05/11 04:42:16;;;;;;;20.35;14.27;;;;;;;12.05;100.00;100225.66;5091462;28;20436;-77
2022/05/11 04:44:41;;;;;;;22.55;15.05;;;;;;;12.10;100.00;100236.63;5074005;28;20401;-77
2022/05/11 04:47:09;;;;;;;27.23;16.48;;;;;;;12.13;100.00;100231.78;5092059;28;20036;-77
2022/05/11 04:49:34;;;;;;;22.85;14.70;;;;;;;12.19;100.00;100233.72;5090531;28;20071;-77
2022/05/11 04:52:10;;;;;;;21.05;13.45;;;;;;;12.22;100.00;100230.66;5089913;28;20096;-78
2022/05/11 04:54:38;;;;;;;26.60;16.50;;;;;;;12.27;100.00;100226.63;5091184;28;20043;-78
2022/05/11 04:57:05;;;;;;;19.58;13.02;;;;;;;12.32;100.00;100235.69;5089377;28;20051;-77
2022/05/11 04:59:32;;;;;;;20.27;12.27;;;;;;;12.35;100.00;100235.34;5091149;28;20123;-78
2022/05/11 05:01:59;;;;;;;18.40;12.35;;;;;;;12.39;100.00;100228.63;5093912;28;20063;-78
2022/05/11 05:04:27;;;;;;;14.93;11.85;;;;;;;12.43;100.00;100234.41;5096102;28;20079;-77
2022/05/11 05:06:52;;;;;;;;;;;;;;;12.49;100.00;100231.84;5097994;28;20497;-79
2022/05/11 05:09:18;;;;;;;18.73;12.20;;;;;;;12.56;100.00;100231.91;5088327;28;19962;-77
2022/05/11 05:11:43;;;;;;;19.92;12.70;;;;;;;12.69;100.00;100239.28;5087858;28;20032;-77
2022/05/11 05:14:11;;;;;;;22.73;13.90;;;;;;;12.79;100.00;100237.16;5088285;28;20041;-76
2022/05/11 05:16:37;;;;;;;20.85;13.00;;;;;;;12.92;100.00;100236.47;5086975;28;20501;-77
2022/05/11 05:19:03;;;;;;;16.88;12.35;;;;;;;12.97;100.00;100226.84;5088244;28;20034;-77
2022/05/11 05:21:29;;;;;;;17.70;12.38;;;;;;;13.10;100.00;100233.34;5087658;28;20111;-77
2022/05/11 05:23:54;;;;;;;19.40;13.27;;;;;;;13.20;100.00;100233.88;5096294;28;20044;-76
2022/05/11 05:26:20;;;;;;;22.75;15.60;;;;;;;13.29;100.00;100236.25;5102067;28;20039;-77
2022/05/11 05:31:31;;;;;;;16.42;11.23;;;;;;;13.48;100.00;100228.59;5100876;28;20056;-77
2022/05/11 05:34:00;;;;;;;17.10;12.10;;;;;;;13.56;100.00;100236.50;5086953;28;20043;-78
2022/05/11 05:36:28;;;;;;;17.85;12.30;;;;;;;13.67;100.00;100230.63;5084932;28;20048;-76
2022/05/11 05:38:54;;;;;;;15.57;12.07;;;;;;;13.79;100.00;100237.09;5075255;28;20043;-80
2022/05/11 05:41:20;;;;;;;16.05;11.98;;;;;;;13.92;100.00;100227.53;5082127;28;20365;-79
2022/05/11 05:43:45;;;;;;;16.20;11.35;;;;;;;14.18;100.00;100235.72;5078749;28;20078;-74
2022/05/11 05:46:11;;;;;;;15.23;11.02;;;;;;;14.35;100.00;100237.06;5073425;28;20032;-76
2022/05/11 05:48:37;;;;;;;18.40;11.65;;;;;;;14.45;100.00;100241.22;5074070;28;20045;-73
2022/05/11 05:51:06;;;;;;;17.45;11.45;;;;;;;14.52;100.00;100236.75;5073784;28;20052;-73
2022/05/11 05:53:33;;;;;;;14.50;10.95;;;;;;;14.58;100.00;100235.97;5073808;28;20082;-73
2022/05/11 05:55:58;;;;;;;16.05;11.32;;;;;;;14.66;100.00;100239.28;5073673;28;20028;-76
2022/05/11 05:58:24;;;;;;;15.98;10.98;;;;;;;14.77;100.00;100242.44;5072553;28;20036;-74
2022/05/11 06:00:49;;;;;;;15.52;10.32;;;;;;;14.89;100.00;100244.34;5073628;28;20029;-74
2022/05/11 06:03:23;;;;;;;13.88;10.32;;;;;;;15.02;100.00;100237.38;5073356;28;20060;-73
2022/05/11 06:05:49;;;;;;;15.75;11.50;;;;;;;15.02;100.00;100216.75;5073442;28;20400;-74
2022/05/11 06:08:16;;;;;;;13.63;10.00;;;;;;;15.30;100.00;100242.59;5073433;28;20035;-74
2022/05/11 06:10:45;;;;;;;13.00;8.45;;;;;;;15.42;99.66;100239.09;5073469;28;20040;-74
2022/05/11 06:13:17;;;;;;;10.27;7.93;;;;;;;15.56;92.53;100236.41;5073144;28;20446;-76
2022/05/11 06:15:43;;;;;;;10.75;8.63;;;;;;;15.68;91.87;100237.50;5073583;28;20039;-74
2022/05/11 06:18:09;;;;;;;12.43;8.63;;;;;;;15.85;93.52;100233.38;5073307;28;20028;-74
2022/05/11 06:20:36;;;;;;;11.23;7.72;;;;;;;16.02;88.09;100228.38;5073013;28;20548;-74
2022/05/11 06:23:03;;;;;;;13.57;8.55;;;;;;;16.22;88.29;100231.84;5073071;28;20047;-74
2022/05/11 06:25:33;;;;;;;11.25;8.25;;;;;;;16.30;88.56;100225.44;5073035;28;20052;-74
2022/05/11 06:27:59;;;;;;;13.73;8.02;;;;;;;16.45;87.00;100233.25;5071883;28;20071;-74
2022/05/11 06:30:27;;;;;;;11.32;8.43;;;;;;;16.54;85.82;100231.97;5073035;28;20024;-74
2022/05/11 06:32:53;;;;;;;13.52;7.63;;;;;;;16.73;83.84;100233.78;5072697;28;20029;-75
2022/05/11 06:35:19;;;;;;;12.23;7.57;;;;;;;16.81;85.80;100233.53;5072840;28;20127;-74
2022/05/11 06:37:45;;;;;;;13.68;8.23;;;;;;;16.97;84.10;100232.22;5072934;28;20040;-74
2022/05/11 06:40:12;;;;;;;9.73;7.00;;;;;;;17.11;83.88;100232.97;5071599;28;20090;-74
2022/05/11 06:42:38;;;;;;;11.77;8.10;;;;;;;17.21;82.92;100230.59;5072465;28;20393;-74
2022/05/11 06:45:05;;;;;;;9.20;7.05;;;;;;;17.32;82.49;100227.22;5071604;28;20048;-75
2022/05/11 06:47:32;;;;;;;9.25;7.10;;;;;;;17.53;80.62;100227.91;5072561;28;20045;-75
2022/05/11 06:49:58;;;;;;;12.33;8.13;;;;;;;17.61;80.23;100222.28;5072620;28;20493;-75
2022/05/11 06:52:23;;;;;;;9.68;7.63;;;;;;;17.71;80.09;100216.38;5072376;28;20029;-75
2022/05/11 07:00:17;;;;;;;10.15;7.38;;;;;;;18.52;76.69;100218.91;5072650;28;20037;-75
2022/05/11 07:02:43;;;;;;;9.82;6.85;;;;;;;18.74;74.36;100221.97;5072080;28;20037;-75
2022/05/11 07:05:10;;;;;;;8.73;6.60;;;;;;;18.79;75.11;100219.41;5072441;28;20040;-75
2022/05/11 07:07:35;;;;;;;10.02;7.22;;;;;;;18.91;74.03;100212.19;5072376;28;20378;-75
2022/05/11 07:10:02;;;;;;;10.70;6.75;;;;;;;19.09;73.62;100214.00;5072395;28;20032;-76
2022/05/11 07:12:38;;;;;;;8.40;6.88;;;;;;;19.13;74.20;100220.59;5072004;28;20032;-75
2022/05/11 07:15:08;;;;;;;9.30;6.55;;;;;;;19.31;71.81;100210.81;5072171;28;20063;-75
2022/05/11 07:17:39;;;;;;;9.50;6.53;;;;;;;19.38;72.93;100214.22;5072142;28;20481;-75
2022/05/11 07:20:11;;;;;;;9.45;6.03;;;;;;;19.52;72.91;100212.94;5072113;28;20040;-75
2022/05/11 07:22:38;;;;;;;12.38;6.55;;;;;;;19.83;70.45;100197.50;5071812;28;20056;-75
2022/05/11 07:25:05;;;;;;;9.10;5.53;;;;;;;20.13;67.61;100200.88;5072054;28;20830;-74
2022/05/11 07:27:31;;;;;;;9.48;5.93;;;;;;;20.32;67.32;100202.38;5070769;28;20322;-74
2022/05/11 07:29:57;;;;;;;5.85;4.70;;;;;;;20.80;62.12;100200.38;5070690;28;20060;-74
2022/05/11 07:32:23;;;;;;;8.02;5.47;;;;;;;20.80;62.42;100198.53;5071644;28;20029;-77
2022/05/11 07:34:51;;;;;;;7.28;4.93;;;;;;;20.98;62.40;100197.47;5070898;28;20475;-76
2022/05/11 07:37:17;;;;;;;7.65;5.68;;;;;;;21.13;62.18;100197.78;5071789;28;20110;-75
2022/05/11 07:39:43;;;;;;;8.75;5.15;;;;;;;21.20;60.24;100186.78;5071773;28;20400;-74
2022/05/11 07:42:08;;;;;;;5.40;4.90;;;;;;;21.28;59.95;100197.25;5070107;28;20393;-75
2022/05/11 07:44:34;;;;;;;8.40;4.82;;;;;;;21.61;58.93;100198.34;5071725;28;20090;-76
2022/05/11 07:46:59;;;;;;;5.80;4.50;;;;;;;21.60;58.55;100197.50;5071659;28;20055;-75
2022/05/11 07:49:25;;;;;;;5.82;4.65;;;;;;;21.77;58.40;100196.66;5071705;28;20028;-76
2022/05/11 07:51:52;;;;;;;7.00;4.90;;;;;;;21.96;57.29;100189.91;5071410;28;20108;-75
2022/05/11 07:54:19;;;;;;;5.57;4.65;;;;;;;22.14;58.13;100183.41;5070405;28;20127;-75
2022/05/11 08:02:14;;;;;;;5.20;3.95;;;;;;;22.66;55.66;100181.06;5071424;28;20032;-75
2022/05/11 08:04:41;;;;;;;5.60;4.33;;;;;;;22.78;57.84;100183.66;5071455;28;20113;-76
2022/05/11 08:07:07;;;;;;;8.07;4.65;;;;;;;23.08;54.92;100182.34;5071397;28;20270;-76
2022/05/11 08:09:33;;;;;;;5.40;4.05;;;;;;;23.27;53.37;100184.41;5070262;28;20062;-76
2022/05/11 08:11:58;;;;;;;6.03;4.50;;;;;;;23.33;53.61;100168.97;5071095;28;20119;-76
2022/05/11 08:14:24;;;;;;;7.85;4.18;;;;;;;23.55;53.59;100177.88;5071340;28;20090;-76
2022/05/11 08:16:52;;;;;;;4.50;3.55;;;;;;;23.67;52.24;100168.72;5071633;28;20520;-76
2022/05/11 08:19:22;;;;;;;4.43;4.03;;;;;;;23.91;50.88;100172.69;5071655;28;20120;-76
2022/05/11 08:21:50;;;;;;;6.43;3.80;;;;;;;24.16;50.00;100171.22;5071134;28;20456;-76
2022/05/11 08:24:15;;;;;;;6.05;4.07;;;;;;;24.22;49.76;100164.72;5071710;28;20044;-75
2022/05/11 08:26:42;;;;;;;5.60;3.90;;;;;;;24.48;48.67;100162.94;5071626;28;20036;-75
2022/05/11 08:29:08;;;;;;;5.30;4.60;;;;;;;24.43;49.18;100161.00;5071244;28;20047;-75
2022/05/11 08:34:18;;;;;;;6.47;4.20;;;;;;;24.62;49.11;100162.16;5070771;28;20036;-77
2022/05/11 08:36:45;;;;;;;8.57;3.92;;;;;;;24.80;49.27;100160.84;5071179;28;20568;-77
2022/05/11 08:39:11;;;;;;;5.68;4.13;;;;;;;24.97;48.56;100155.16;5071306;28;20068;-77
2022/05/11 08:41:45;;;;;;;5.13;3.80;;;;;;;24.99;47.56;100155.72;5071196;28;20102;-75
2022/05/11 08:44:17;;;;;;;10.18;4.38;;;;;;;25.06;47.39;100150.84;5071055;28;20512;-76
2022/05/11 08:46:47;;;;;;;4.72;3.95;;;;;;;25.22;47.89;100148.94;5071444;28;20037;-77
2022/05/11 08:49:31;;;;;;;4.60;3.78;;;;;;;25.26;47.42;100150.03;5071715;28;20040;-76
2022/05/11 08:52:10;;;;;;;6.50;4.10;;;;;;;25.43;46.43;100145.13;5070957;28;20033;-76
2022/05/11 08:54:39;;;;;;;4.95;3.88;;;;;;;25.59;46.95;100142.38;5071159;28;20493;-77
2022/05/11 08:57:09;;;;;;;4.78;3.92;;;;;;;25.82;46.64;100151.91;5071137;28;20043;-75
2022/05/11 08:59:37;;;;;;;5.93;3.88;;;;;;;25.91;45.06;100144.81;5071102;28;20082;-75
2022/05/11 09:02:19;;;;;;;4.85;3.63;;;;;;;25.87;43.89;100141.78;5071526;28;20025;-77
2022/05/11 09:04:55;;;;;;;5.05;3.83;;;;;;;26.22;44.22;100140.88;5071404;28;20048;-77
2022/05/11 09:07:20;;;;;;;5.10;3.90;;;;;;;26.42;44.55;100140.00;5071049;28;20033;-77
2022/05/11 09:09:46;;;;;;;7.18;4.13;;;;;;;26.43;42.88;100143.53;5074980;28;20070;-78
2022/05/11 09:12:12;;;;;;;4.75;3.50;;;;;;;26.54;43.41;100138.81;5075575;28;20036;-77
2022/05/11 09:14:42;;;;;;;5.88;3.92;;;;;;;26.71;43.33;100140.09;5076049;28;20127;-77
2022/05/11 09:17:36;;;;;;;4.80;3.95;;;;;;;26.81;41.10;100138.41;5075570;28;20040;-78
2022/05/11 09:20:14;;;;;;;6.88;3.83;;;;;;;27.03;42.12;100133.31;5074560;28;20131;-77
2022/05/11 09:22:54;;;;;;;5.47;4.28;;;;;;;27.00;43.02;100137.47;5075077;28;20508;-78
2022/05/11 09:25:24;;;;;;;5.93;4.05;;;;;;;27.18;40.60;100135.16;5075851;28;20128;-78
2022/05/11 09:27:51;;;;;;;6.05;4.05;;;;;;;27.08;42.44;100136.06;5076364;28;20028;-77
2022/05/11 09:30:30;;;;;;;6.75;4.13;;;;;;;27.25;41.19;100125.50;5075322;28;20067;-76
2022/05/11 09:33:23;;;;;;;6.53;3.97;;;;;;;27.58;39.83;100133.97;5074185;28;20465;-77
2022/05/11 09:35:49;;;;;;;9.38;4.45;;;;;;;27.73;39.99;100131.13;5074786;28;20041;-78
2022/05/11 09:38:17;;;;;;;5.25;4.35;;;;;;;27.84;40.01;100118.97;5074285;28;20051;-76
2022/05/11 09:41:21;;;;;;;4.55;4.10;;;;;;;27.79;39.17;100132.69;5074038;28;20044;-76
2022/05/11 09:43:53;;;;;;;4.95;4.13;;;;;;;27.55;39.23;100124.44;5074039;28;20055;-76
2022/05/11 09:46:32;;;;;;;4.90;3.95;;;;;;;27.99;39.65;100115.22;5074048;28;20049;-77
2022/05/11 09:49:09;;;;;;;7.32;4.35;;;;;;;28.31;39.70;100113.78;5074232;28;20111;-76
2022/05/11 09:51:54;;;;;;;6.30;4.13;;;;;;;28.58;40.98;100108.47;5073049;28;20051;-77
2022/05/11 09:54:46;;;;;;;6.03;4.30;;;;;;;28.71;38.95;100111.56;5074135;28;20499;-78
2022/05/11 09:57:12;;;;;;;4.50;4.10;;;;;;;28.72;37.56;100104.97;5073576;28;20145;-76
2022/05/11 09:59:49;;;;;;;9.95;4.68;;;;;;;29.07;40.57;100109.09;5074496;28;20040;-78
2022/05/11 10:02:15;;;;;;;;;;;;;;;29.53;36.76;100100.09;5073856;28;20035;-77
2022/05/11 10:04:50;;;;;;;8.10;4.63;;;;;;;29.73;36.98;100099.72;5074421;28;19999;-81
2022/05/11 10:07:20;;;;;;;6.60;4.57;;;;;;;29.74;36.66;100090.38;5074295;28;20094;-77
2022/05/11 10:09:51;;;;;;;5.80;4.30;;;;;;;29.90;35.76;100093.63;5074528;28;20084;-79
2022/05/11 10:12:22;;;;;;;5.82;4.60;;;;;;;30.17;36.55;100082.66;5075035;28;20040;-77
2022/05/11 10:23:33;;;;;;;8.32;4.22;;;;;;;30.96;33.97;100079.47;5073049;28;20283;-75
2022/05/11 10:26:04;;;;;;;6.65;4.47;;;;;;;31.14;34.22;100087.84;5073295;28;20037;-75
2022/05/11 10:28:32;;;;;;;5.38;4.38;;;;;;;31.20;32.99;100078.34;5073294;28;20119;-77
2022/05/11 10:31:23;;;;;;;9.27;4.38;;;;;;;30.95;32.88;100086.09;5073284;28;20033;-76
2022/05/11 10:33:51;;;;;;;5.57;3.83;;;;;;;30.46;32.83;100081.47;5073078;28;20033;-76
2022/05/11 10:36:54;;;;;;;7.47;4.13;;;;;;;30.87;32.34;100072.28;5072026;28;20059;-76
2022/05/11 10:39:28;;;;;;;5.43;4.03;;;;;;;31.30;33.14;100061.59;5073040;28;20044;-75
2022/05/11 10:42:08;;;;;;;5.28;4.07;;;;;;;31.42;32.33;100055.50;5072512;28;20047;-75
2022/05/11 10:44:47;;;;;;;5.03;4.63;;;;;;;31.66;31.50;100066.13;5073651;28;20143;-77
2022/05/11 10:47:34;;;;;;;4.82;4.28;;;;;;;31.26;31.03;100066.91;5073116;28;20113;-76
2022/05/11 10:50:21;;;;;;;7.75;4.15;;;;;;;31.00;31.66;100055.72;5072781;28;20041;-76
2022/05/11 10:52:46;;;;;;;;;;;;;;;31.15;30.97;100045.44;5073061;28;20035;-72
2022/05/11 10:55:45;;;;;;;5.37;3.60;;;;;;;30.71;31.65;100044.34;5072591;28;19912;-73
2022/05/11 10:58:39;;;;;;;5.13;3.50;;;;;;;30.63;31.65;100045.88;5072689;28;20112;-70
2022/05/11 11:01:10;;;;;;;4.78;3.60;;;;;;;30.99;31.83;100043.09;5072656;28;20028;-71
2022/05/11 11:04:31;;;;;;;6.05;3.80;;;;;;;31.05;31.64;100043.78;5070918;28;20040;-72
2022/05/11 11:07:20;;;;;;;5.65;4.20;;;;;;;31.53;32.20;100040.31;5010349;28;20050;-71
2022/05/11 11:09:52;;;;;;;5.65;3.70;;;;;;;31.66;31.35;100044.09;5069609;28;20150;-70
2022/05/11 11:12:35;;;;;;;9.00;4.18;;;;;;;31.54;30.46;100022.69;5072180;28;20032;-71
2022/05/11 11:15:10;;;;;;;4.15;3.60;;;;;;;31.93;31.09;100027.34;5072412;28;20028;-70
2022/05/11 11:17:36;;;;;;;4.50;3.83;;;;;;;31.90;30.47;100036.28;5054223;28;20036;-71
2022/05/11 11:20:06;;;;;;;5.88;3.85;;;;;;;32.41;31.30;100015.47;5072361;28;20492;-70
2022/05/11 11:23:09;;;;;;;6.95;4.32;;;;;;;32.50;29.98;100019.00;5071711;28;20115;-70
2022/05/11 11:26:05;;;;;;;4.53;4.13;;;;;;;31.88;28.24;100014.53;5072175;28;20059;-71
2022/05/11 11:28:40;;;;;;;4.57;3.75;;;;;;;32.01;29.26;100015.53;5071213;28;20049;-71
2022/05/11 11:31:14;;;;;;;6.13;4.18;;;;;;;32.59;28.85;100025.31;5071497;28;20036;-71
2022/05/11 11:34:04;;;;;;;5.45;3.65;;;;;;;32.63;28.43;100011.72;5071721;28;20398;-71
2022/05/11 11:36:32;;;;;;;6.18;4.10;;;;;;;32.72;29.51;100003.41;5071938;28;20044;-71
2022/05/11 11:39:40;;;;;;;5.18;4.20;;;;;;;32.48;28.50;100004.75;5071849;28;20039;-71
2022/05/11 11:42:07;;;;;;;4.40;3.70;;;;;;;31.96;29.18;100004.69;5070603;28;20038;-72
2022/05/11 11:44:36;;;;;;;;;;;;;;;31.69;29.80;100008.50;5072302;28;20558;-72
2022/05/11 11:47:27;;;;;;;4.97;3.83;;;;;;;31.18;29.97;100011.84;5071724;28;19922;-73
2022/05/11 11:49:58;;;;;;;5.60;3.75;;;;;;;31.69;29.73;99989.22;5071658;28;20067;-74
2022/05/11 11:52:37;;;;;;;4.45;3.65;;;;;;;31.54;29.61;99995.97;5071441;28;20410;-74
2022/05/11 11:55:13;;;;;;;5.28;3.70;;;;;;;31.81;28.28;99985.88;5071976;28;20068;-74
2022/05/11 11:57:39;;;;;;;5.95;3.92;;;;;;;32.10;29.47;99994.34;5071694;28;20064;-73
2022/05/11 12:00:20;;;;;;;5.90;4.43;;;;;;;32.53;28.58;99987.22;5071652;28;20108;-75
2022/05/11 12:02:46;;;;;;;7.22;4.22;;;;;;;32.35;27.86;99989.19;5069932;28;20075;-74
2022/05/11 12:05:39;;;;;;;4.25;3.63;;;;;;;32.44;27.64;99978.97;5071522;28;20039;-76
2022/05/11 12:16:59;;;;;;;5.47;3.92;;;;;;;33.26;28.07;99962.41;5070087;28;20032;-73
2022/05/11 12:19:28;;;;;;;5.05;3.92;;;;;;;33.08;28.29;99961.66;5071434;28;20040;-73
2022/05/11 12:22:04;;;;;;;5.22;4.57;;;;;;;32.85;29.28;99966.56;5070927;28;20029;-73
2022/05/11 12:24:38;;;;;;;4.40;4.00;;;;;;;33.21;27.11;99955.94;5071425;28;20037;-74
2022/05/11 12:27:08;;;;;;;4.55;4.15;;;;;;;32.51;29.14;99965.50;5071336;28;20036;-75
2022/05/11 12:32:33;;;;;;;9.30;4.68;;;;;;;31.52;30.87;99958.91;5070956;28;20029;-73
2022/05/11 12:35:29;;;;;;;6.65;4.22;;;;;;;31.75;29.44;99954.06;5071299;28;20116;-73
2022/05/11 12:37:58;;;;;;;7.35;4.15;;;;;;;31.74;30.05;99953.28;5070585;28;20139;-73
2022/05/11 12:40:24;;;;;;;7.55;4.18;;;;;;;31.95;30.78;99942.50;5071509;28;20432;-73
2022/05/11 12:42:55;;;;;;;5.70;4.38;;;;;;;32.62;30.59;99941.97;5071857;28;20048;-73
2022/05/11 12:45:36;;;;;;;5.22;4.07;;;;;;;33.17;29.12;99943.94;5075140;28;20044;-74
2022/05/11 12:48:03;;;;;;;5.60;4.63;;;;;;;33.86;29.99;99944.72;5075069;28;20413;-74
2022/05/11 12:50:33;;;;;;;;;;;;;;;33.59;28.77;99935.00;5075587;28;20078;-74
2022/05/11 12:53:17;;;;;;;5.38;3.70;;;;;;;33.29;27.96;99939.66;5074816;28;20431;-73
2022/05/11 12:55:45;;;;;;;5.15;3.83;;;;;;;33.61;29.37;99935.44;5075044;28;20413;-73
2022/05/11 12:58:22;;;;;;;4.65;3.60;;;;;;;33.12;28.13;99924.78;5073871;28;20024;-73
2022/05/11 13:00:57;;;;;;;6.47;4.60;;;;;;;33.63;28.26;99922.91;5074887;28;20044;-74
2022/05/11 13:03:27;;;;;;;6.53;4.15;;;;;;;32.54;28.08;99919.94;5074706;28;20047;-74
2022/05/11 13:05:57;;;;;;;5.50;3.65;;;;;;;31.77;28.77;99919.59;5074815;28;20043;-74
2022/05/11 13:08:25;;;;;;;5.00;4.13;;;;;;;30.94;29.62;99910.44;5074891;28;20111;-74
2022/05/11 13:10:51;;;;;;;6.30;3.75;;;;;;;31.98;29.62;99913.50;5073503;28;20024;-74
2022/05/11 13:13:31;;;;;;;5.68;3.80;;;;;;;32.70;29.46;99906.44;5074346;28;20044;-73
2022/05/11 13:16:11;;;;;;;6.15;3.92;;;;;;;33.50;28.67;99904.66;5074606;28;20486;-74
2022/05/11 13:18:38;;;;;;;4.68;3.70;;;;;;;33.43;24.71;99891.38;5074673;28;20040;-74
2022/05/11 13:21:08;;;;;;;5.40;3.10;;;;;;;33.16;24.29;99897.34;5074387;28;20429;-75
2022/05/11 13:24:00;;;;;;;6.88;3.97;;;;;;;32.53;26.34;99894.31;5073192;28;20047;-74
2022/05/11 13:26:47;;;;;;;5.30;3.33;;;;;;;32.50;27.06;99892.22;5074162;28;20083;-74
2022/05/11 13:29:26;;;;;;;6.45;3.70;;;;;;;31.87;27.14;99891.78;5074442;28;20036;-74
2022/05/11 13:32:10;;;;;;;4.50;3.70;;;;;;;31.10;28.24;99878.63;5074187;28;20044;-75
2022/05/11 13:34:39;;;;;;;4.43;3.60;;;;;;;31.24;28.48;99873.88;5074343;28;20386;-74
2022/05/11 13:37:12;;;;;;;4.00;3.40;;;;;;;31.17;30.31;99878.16;5074272;28;20037;-75
2022/05/11 13:39:39;;;;;;;5.82;3.70;;;;;;;30.59;30.19;99865.47;5074234;28;20404;-74
2022/05/11 13:42:25;;;;;;;6.20;3.47;;;;;;;30.65;31.70;99873.25;5073888;28;20041;-75
2022/05/11 13:45:04;;;;;;;;;;;;;;;30.56;30.31;99874.31;5073307;28;20068;-74
2022/05/11 13:50:36;;;;;;;7.78;4.25;;;;;;;30.28;32.28;99871.75;5073969;28;20036;-74
2022/05/11 13:53:04;;;;;;;6.93;4.22;;;;;;;30.04;31.71;99866.53;5073519;28;20131;-74
2022/05/11 13:55:34;;;;;;;8.80;3.85;;;;;;;29.77;31.28;99856.47;5073689;28;20466;-74
2022/05/11 13:58:34;;;;;;;5.82;3.58;;;;;;;29.98;30.27;99854.84;5073924;28;20448;-74
2022/05/11 14:01:05;;;;;;;5.38;3.80;;;;;;;29.91;30.58;99856.41;5073780;28;20032;-75
2022/05/11 14:03:37;;;;;;;4.95;3.60;;;;;;;29.81;31.20;99849.25;5073541;28;20076;-74
2022/05/11 14:06:06;;;;;;;7.90;3.55;;;;;;;29.64;30.81;99852.63;5073744;28;20485;-74
2022/05/11 14:08:33;;;;;;;5.45;3.92;;;;;;;29.47;31.24;99852.44;5073582;28;20045;-74
2022/05/11 14:10:59;;;;;;;5.10;3.88;;;;;;;29.69;31.60;99840.75;5073625;28;20144;-74
2022/05/11 14:13:25;;;;;;;4.65;3.70;;;;;;;29.57;31.23;99844.03;5073280;28;20541;-75
2022/05/11 14:15:51;;;;;;;7.22;3.53;;;;;;;29.54;30.19;99838.34;5073527;28;20039;-74
2022/05/11 14:18:20;;;;;;;3.90;3.58;;;;;;;29.71;30.76;99830.25;5073622;28;20397;-74
2022/05/11 14:20:47;;;;;;;6.15;3.58;;;;;;;29.80;29.83;99831.16;5055331;28;20075;-74
2022/05/11 14:23:14;;;;;;;5.32;3.20;;;;;;;29.87;28.12;99831.53;5073124;28;20037;-75
2022/05/11 14:25:39;;;;;;;5.32;3.00;;;;;;;29.93;28.13;99837.69;5073264;28;20032;-74
2022/05/11 14:28:05;;;;;;;7.07;3.53;;;;;;;29.85;27.95;99833.75;5073361;28;20071;-75
2022/05/11 14:30:32;;;;;;;5.97;2.85;;;;;;;29.87;27.28;99833.47;5073238;28;20067;-74
2022/05/11 14:32:58;;;;;;;4.57;2.72;;;;;;;29.84;27.62;99828.59;5073061;28;20485;-74
2022/05/11 14:35:25;;;;;;;5.82;2.83;;;;;;;29.92;27.92;99831.38;5073047;28;20044;-74
2022/05/11 14:37:52;;;;;;;4.30;3.20;;;;;;;29.81;29.17;99823.72;5071966;28;20524;-75
2022/05/11 14:40:25;;;;;;;4.38;2.70;;;;;;;29.98;28.43;99819.16;5072906;28;20115;-74
2022/05/11 14:42:50;;;;;;;6.57;3.10;;;;;;;29.92;27.09;99814.91;5069859;28;20055;-74
2022/05/11 14:45:17;;;;;;;5.22;3.08;;;;;;;29.64;28.50;99816.16;5071447;28;20041;-75
2022/05/11 14:47:46;;;;;;;5.78;3.03;;;;;;;29.77;27.73;99819.97;5072921;28;20040;-75
2022/05/11 14:50:20;;;;;;;7.22;2.92;;;;;;;29.71;26.67;99822.03;5072779;28;20081;-75
2022/05/11 14:52:47;;;;;;;6.53;2.83;;;;;;;29.67;27.08;99810.06;5072494;28;20543;-75
2022/05/11 14:55:13;;;;;;;;;;;;;;;29.65;27.24;99818.59;5073088;28;20406;-73
2022/05/11 15:03:08;;;;;;;4.72;3.03;;;;;;;29.54;26.09;99814.47;5062470;22;20482;-72
2022/05/11 15:05:34;;;;;;;5.18;3.00;;;;;;;29.50;27.16;99804.41;5032492;28;20374;-72
2022/05/11 15:07:59;;;;;;;6.20;2.90;;;;;;;29.62;28.06;99815.66;5033107;28;20044;-73
2022/05/11 15:10:25;;;;;;;9.27;2.78;;;;;;;29.66;27.89;99813.91;5032966;28;20037;-71
2022/05/11 15:15:35;;;;;;;4.57;2.92;;;;;;;29.56;27.43;99812.22;5032966;28;20486;-71
2022/05/11 15:18:10;;;;;;;4.13;2.50;;;;;;;29.45;27.27;99803.38;5032818;28;20486;-71
2022/05/11 15:20:36;;;;;;;6.13;2.92;;;;;;;29.48;28.20;99812.13;5034156;28;20501;-72
2022/05/11 15:23:01;;;;;;;6.20;3.50;;;;;;;29.44;28.26;99811.94;5032754;28;20033;-72
2022/05/11 15:25:29;;;;;;;4.28;2.80;;;;;;;29.43;27.21;99807.56;5033555;28;20402;-73
2022/05/11 15:27:54;;;;;;;;;;;;;;;29.34;27.28;99810.25;5032963;28;20037;-73
2022/05/11 15:30:22;;;;;;;4.17;2.73;;;;;;;29.25;25.72;99824.97;5031090;28;19920;-73
2022/05/11 15:32:49;;;;;;;5.22;2.45;;;;;;;29.17;25.16;99808.13;5031881;28;20033;-73
2022/05/11 15:35:17;;;;;;;8.45;2.80;;;;;;;29.10;25.63;99812.41;5032183;28;20042;-73
2022/05/11 15:37:42;;;;;;;5.18;2.60;;;;;;;28.97;26.02;99803.06;5032818;28;20381;-72
2022/05/11 15:40:10;;;;;;;4.47;2.35;;;;;;;28.97;27.21;99815.97;5033001;28;20112;-71
2022/05/11 15:42:37;;;;;;;7.88;2.70;;;;;;;28.95;26.80;99815.44;5032034;28;20032;-71
2022/05/11 15:45:03;;;;;;;5.78;2.70;;;;;;;28.90;24.67;99813.59;5032455;28;20056;-71
2022/05/11 15:47:29;;;;;;;4.32;2.35;;;;;;;28.91;25.39;99809.75;5032487;28;20499;-73
2022/05/11 15:49:54;;;;;;;5.28;3.40;;;;;;;28.96;25.88;99811.63;5032802;28;20049;-74
2022/05/11 15:52:23;;;;;;;4.55;2.20;;;;;;;28.82;25.93;99806.06;5032772;28;20046;-72
2022/05/11 15:54:49;;;;;;;3.30;2.42;;;;;;;28.77;24.83;99808.94;5033142;28;20440;-72
2022/05/11 15:57:15;;;;;;;3.45;2.38;;;;;;;28.80;25.88;99814.63;5032697;28;20041;-72
2022/05/11 15:59:41;;;;;;;6.28;2.63;;;;;;;28.76;25.24;99810.06;5033187;28;20061;-72
2022/05/11 16:02:11;;;;;;;4.93;2.60;;;;;;;28.84;25.81;99804.69;5032293;28;20072;-71
2022/05/11 16:04:38;;;;;;;6.63;2.55;;;;;;;28.85;25.19;99805.47;5032961;28;20045;-72
2022/05/11 16:07:05;;;;;;;;;;;;;;;28.74;25.23;99809.53;5032378;28;20033;-71
2022/05/11 16:09:30;;;;;;;7.05;2.65;;;;;;;28.74;24.79;99807.59;5032273;28;19917;-71
2022/05/11 16:11:56;;;;;;;4.28;2.47;;;;;;;28.71;24.71;99819.19;5031347;28;20083;-73
2022/05/11 16:14:23;;;;;;;6.65;2.40;;;;;;;28.70;23.75;99808.53;5031648;28;20088;-72
2022/05/11 16:16:48;;;;;;;3.35;2.47;;;;;;;28.66;23.32;99805.59;5031678;28;20072;-72
2022/05/11 16:21:58;;;;;;;5.95;2.58;;;;;;;28.57;24.62;99810.16;5030804;28;20033;-72
2022/05/11 16:24:24;;;;;;;5.18;2.78;;;;;;;28.51;26.21;99806.69;5032554;28;20115;-72
2022/05/11 16:26:49;;;;;;;4.63;2.72;;;;;;;28.50;27.59;99807.00;5033078;28;20033;-72
2022/05/11 16:29:19;;;;;;;5.07;2.78;;;;;;;28.44;29.08;99816.44;5032778;28;20047;-73
2022/05/11 16:31:47;;;;;;;5.03;3.00;;;;;;;28.30;30.26;99803.50;5032658;28;20044;-72
2022/05/11 16:34:13;;;;;;;;;;;;;;;28.37;30.24;99806.69;5032993;28;20042;-72
2022/05/11 16:36:39;;;;;;;5.22;2.80;;;;;;;28.24;30.10;99804.69;5032336;28;19917;-72
2022/05/11 16:39:05;;;;;;;6.35;3.25;;;;;;;28.16;30.11;99799.06;5031400;28;20037;-72
2022/05/11 16:41:31;;;;;;;4.47;3.08;;;;;;;28.23;30.34;99808.53;5031376;28;20033;-73
2022/05/11 16:43:57;;;;;;;6.75;2.90;;;;;;;28.17;31.15;99801.53;5031901;28;20030;-73
2022/05/11 16:46:24;;;;;;;6.70;2.90;;;;;;;28.21;30.80;99797.06;5031718;28;20548;-72
2022/05/11 16:48:49;;;;;;;3.50;2.70;;;;;;;28.11;30.58;99805.47;5030624;28;20505;-72
2022/05/11 16:51:15;;;;;;;6.05;2.85;;;;;;;28.01;30.91;99808.38;5032058;28;20033;-72
2022/05/11 16:53:41;;;;;;;4.72;3.10;;;;;;;28.02;30.99;99808.06;5031238;28;20042;-73
2022/05/11 16:56:07;;;;;;;5.07;3.25;;;;;;;27.93;31.43;99807.13;5031727;28;20033;-73